Terminal Aerodrome Forecast
Issued by NWS

Home | Current Version | Previous Version | Text Only | Print | Product List | Glossary On
Versions: 1 2 3 4 5 6 7 8 9 10 11 12 13 14 15 16 17 18 19 20 21 22 23 24 25 26 27 28 29 30 31 32 33 34 35 36 37 38 39 40 41 42 43 44 45 46 47 48 49 50
000
FTUS44 KHGX 250150 AAC
TAFUTS
TAF AMD
KUTS 250150Z 2502/2524 20008KT P6SM FEW060 BKN250
     FM250900 22011KT P6SM BKN250
      TEMPO 2509/2512 P6SM -SHRA BKN250
     FM251200 26007KT P6SM SKC
     FM251500 29010KT P6SM SKC=

USA.gov is the U.S. government's official web portal to all federal, state and local government web resources and services.